sensor_id;sensor_type;location;lat;lon;timestamp;temperature;humidity
42683;DHT22;28293;50.930;3.464;2023-04-30T00:01:48;9.00;82.30
42683;DHT22;28293;50.930;3.464;2023-04-30T00:04:14;8.90;82.30
42683;DHT22;28293;50.930;3.464;2023-04-30T00:06:40;8.90;82.40
42683;DHT22;28293;50.930;3.464;2023-04-30T00:09:06;8.90;82.50
42683;DHT22;28293;50.930;3.464;2023-04-30T00:11:31;8.80;82.60
42683;DHT22;28293;50.930;3.464;2023-04-30T00:13:57;8.90;82.70
42683;DHT22;28293;50.930;3.464;2023-04-30T00:16:23;8.80;82.60
42683;DHT22;28293;50.930;3.464;2023-04-30T00:18:49;8.80;82.70
42683;DHT22;28293;50.930;3.464;2023-04-30T00:21:14;8.70;82.90
42683;DHT22;28293;50.930;3.464;2023-04-30T00:23:40;8.60;83.20
42683;DHT22;28293;50.930;3.464;2023-04-30T00:26:06;8.50;83.50
42683;DHT22;28293;50.930;3.464;2023-04-30T00:28:32;8.60;83.60
42683;DHT22;28293;50.930;3.464;2023-04-30T00:30:57;8.60;83.60
42683;DHT22;28293;50.930;3.464;2023-04-30T00:33:23;8.60;83.50
42683;DHT22;28293;50.930;3.464;2023-04-30T00:35:49;8.60;83.50
42683;DHT22;28293;50.930;3.464;2023-04-30T00:38:14;8.60;83.50
42683;DHT22;28293;50.930;3.464;2023-04-30T00:40:40;8.60;83.60
42683;DHT22;28293;50.930;3.464;2023-04-30T00:43:09;8.50;83.60
42683;DHT22;28293;50.930;3.464;2023-04-30T00:45:34;8.40;83.60
42683;DHT22;28293;50.930;3.464;2023-04-30T00:48:00;8.40;83.60
42683;DHT22;28293;50.930;3.464;2023-04-30T00:50:27;8.40;83.70
42683;DHT22;28293;50.930;3.464;2023-04-30T00:52:53;8.40;83.80
42683;DHT22;28293;50.930;3.464;2023-04-30T00:55:19;8.30;83.90
42683;DHT22;28293;50.930;3.464;2023-04-30T00:57:45;8.30;84.00
42683;DHT22;28293;50.930;3.464;2023-04-30T01:00:11;8.30;84.00
42683;DHT22;28293;50.930;3.464;2023-04-30T01:02:38;8.30;83.90
42683;DHT22;28293;50.930;3.464;2023-04-30T01:05:05;8.30;83.80
42683;DHT22;28293;50.930;3.464;2023-04-30T01:07:33;8.30;83.80
42683;DHT22;28293;50.930;3.464;2023-04-30T01:09:59;8.30;83.70
42683;DHT22;28293;50.930;3.464;2023-04-30T01:13:05;8.30;83.60
42683;DHT22;28293;50.930;3.464;2023-04-30T01:15:49;8.30;83.60
42683;DHT22;28293;50.930;3.464;2023-04-30T01:18:33;8.20;83.60
42683;DHT22;28293;50.930;3.464;2023-04-30T01:21:09;8.20;83.70
42683;DHT22;28293;50.930;3.464;2023-04-30T01:28:45;8.00;83.70
42683;DHT22;28293;50.930;3.464;2023-04-30T01:31:17;8.00;83.70
42683;DHT22;28293;50.930;3.464;2023-04-30T01:33:43;8.00;83.70
42683;DHT22;28293;50.930;3.464;2023-04-30T01:36:29;7.90;83.70
42683;DHT22;28293;50.930;3.464;2023-04-30T01:41:57;7.90;83.70
42683;DHT22;28293;50.930;3.464;2023-04-30T01:47:11;7.80;83.70
42683;DHT22;28293;50.930;3.464;2023-04-30T01:50:09;7.80;83.80
42683;DHT22;28293;50.930;3.464;2023-04-30T01:52:55;7.80;83.90
42683;DHT22;28293;50.930;3.464;2023-04-30T01:55:40;7.80;83.80
42683;DHT22;28293;50.930;3.464;2023-04-30T01:58:09;7.80;83.90
42683;DHT22;28293;50.930;3.464;2023-04-30T02:00:39;7.80;84.10
42683;DHT22;28293;50.930;3.464;2023-04-30T02:03:05;7.80;84.20
42683;DHT22;28293;50.930;3.464;2023-04-30T02:05:31;7.80;84.30
42683;DHT22;28293;50.930;3.464;2023-04-30T02:07:57;7.70;84.40
42683;DHT22;28293;50.930;3.464;2023-04-30T02:10:25;7.70;84.60
42683;DHT22;28293;50.930;3.464;2023-04-30T02:12:52;7.80;84.50
42683;DHT22;28293;50.930;3.464;2023-04-30T02:15:18;7.70;84.60
42683;DHT22;28293;50.930;3.464;2023-04-30T02:17:44;7.70;84.60
42683;DHT22;28293;50.930;3.464;2023-04-30T02:20:10;7.80;84.60
42683;DHT22;28293;50.930;3.464;2023-04-30T02:22:36;7.80;84.60
42683;DHT22;28293;50.930;3.464;2023-04-30T02:25:02;7.70;84.50
42683;DHT22;28293;50.930;3.464;2023-04-30T02:27:30;7.70;84.50
42683;DHT22;28293;50.930;3.464;2023-04-30T02:29:56;7.70;84.50
42683;DHT22;28293;50.930;3.464;2023-04-30T02:32:22;7.70;84.50
42683;DHT22;28293;50.930;3.464;2023-04-30T02:34:48;7.70;84.50
42683;DHT22;28293;50.930;3.464;2023-04-30T02:37:13;7.70;84.40
42683;DHT22;28293;50.930;3.464;2023-04-30T02:39:39;7.70;84.40
42683;DHT22;28293;50.930;3.464;2023-04-30T02:42:06;7.60;84.50
42683;DHT22;28293;50.930;3.464;2023-04-30T02:44:32;7.70;84.40
42683;DHT22;28293;50.930;3.464;2023-04-30T02:46:58;7.70;84.40
42683;DHT22;28293;50.930;3.464;2023-04-30T02:49:24;7.60;84.30
42683;DHT22;28293;50.930;3.464;2023-04-30T02:51:51;7.60;84.20
42683;DHT22;28293;50.930;3.464;2023-04-30T02:54:17;7.60;84.30
42683;DHT22;28293;50.930;3.464;2023-04-30T02:56:42;7.60;84.30
42683;DHT22;28293;50.930;3.464;2023-04-30T02:59:09;7.60;84.30
42683;DHT22;28293;50.930;3.464;2023-04-30T03:01:34;7.60;84.10
42683;DHT22;28293;50.930;3.464;2023-04-30T03:04:00;7.60;84.00
42683;DHT22;28293;50.930;3.464;2023-04-30T03:06:28;7.50;84.00
42683;DHT22;28293;50.930;3.464;2023-04-30T03:08:54;7.50;84.10
42683;DHT22;28293;50.930;3.464;2023-04-30T03:11:19;7.40;84.10
42683;DHT22;28293;50.930;3.464;2023-04-30T03:13:47;7.50;84.10
42683;DHT22;28293;50.930;3.464;2023-04-30T03:16:19;7.50;84.20
42683;DHT22;28293;50.930;3.464;2023-04-30T03:18:48;7.50;84.20
42683;DHT22;28293;50.930;3.464;2023-04-30T03:21:15;7.50;84.30
42683;DHT22;28293;50.930;3.464;2023-04-30T03:23:41;7.40;84.40
42683;DHT22;28293;50.930;3.464;2023-04-30T03:26:06;7.40;84.50
42683;DHT22;28293;50.930;3.464;2023-04-30T03:28:33;7.40;84.60
42683;DHT22;28293;50.930;3.464;2023-04-30T03:30:59;7.40;84.90
42683;DHT22;28293;50.930;3.464;2023-04-30T03:33:25;7.30;84.90
42683;DHT22;28293;50.930;3.464;2023-04-30T03:35:50;7.30;85.10
42683;DHT22;28293;50.930;3.464;2023-04-30T03:38:16;7.30;85.10
42683;DHT22;28293;50.930;3.464;2023-04-30T03:40:42;7.30;85.20
42683;DHT22;28293;50.930;3.464;2023-04-30T03:43:07;7.30;85.30
42683;DHT22;28293;50.930;3.464;2023-04-30T03:45:33;7.30;85.20
42683;DHT22;28293;50.930;3.464;2023-04-30T03:47:59;7.20;85.40
42683;DHT22;28293;50.930;3.464;2023-04-30T03:50:24;7.20;85.50
42683;DHT22;28293;50.930;3.464;2023-04-30T03:52:50;7.20;85.50
42683;DHT22;28293;50.930;3.464;2023-04-30T03:55:16;7.20;85.60
42683;DHT22;28293;50.930;3.464;2023-04-30T03:57:42;7.20;85.60
42683;DHT22;28293;50.930;3.464;2023-04-30T04:00:08;7.20;85.50
42683;DHT22;28293;50.930;3.464;2023-04-30T04:02:35;7.20;85.60
42683;DHT22;28293;50.930;3.464;2023-04-30T04:05:01;7.10;85.60
42683;DHT22;28293;50.930;3.464;2023-04-30T04:07:27;7.10;85.60
42683;DHT22;28293;50.930;3.464;2023-04-30T04:09:53;7.10;85.70
42683;DHT22;28293;50.930;3.464;2023-04-30T04:12:19;7.10;85.60
42683;DHT22;28293;50.930;3.464;2023-04-30T04:14:44;7.20;85.40
42683;DHT22;28293;50.930;3.464;2023-04-30T04:17:10;7.20;85.30
42683;DHT22;28293;50.930;3.464;2023-04-30T04:19:36;7.10;85.40
42683;DHT22;28293;50.930;3.464;2023-04-30T04:22:02;7.10;85.50
42683;DHT22;28293;50.930;3.464;2023-04-30T04:24:27;7.10;85.50
42683;DHT22;28293;50.930;3.464;2023-04-30T04:26:53;7.10;85.40
42683;DHT22;28293;50.930;3.464;2023-04-30T04:29:19;7.20;85.50
42683;DHT22;28293;50.930;3.464;2023-04-30T04:31:45;7.20;85.40
42683;DHT22;28293;50.930;3.464;2023-04-30T04:34:13;7.30;85.40
42683;DHT22;28293;50.930;3.464;2023-04-30T04:36:39;7.30;85.30
42683;DHT22;28293;50.930;3.464;2023-04-30T04:39:04;7.30;85.00
42683;DHT22;28293;50.930;3.464;2023-04-30T04:41:33;7.40;84.80
42683;DHT22;28293;50.930;3.464;2023-04-30T04:44:00;7.40;84.90
42683;DHT22;28293;50.930;3.464;2023-04-30T04:46:26;7.40;84.60
42683;DHT22;28293;50.930;3.464;2023-04-30T04:48:53;7.50;84.60
42683;DHT22;28293;50.930;3.464;2023-04-30T04:51:19;7.50;84.40
42683;DHT22;28293;50.930;3.464;2023-04-30T04:53:44;7.60;84.20
42683;DHT22;28293;50.930;3.464;2023-04-30T04:56:11;7.60;84.00
42683;DHT22;28293;50.930;3.464;2023-04-30T04:58:37;7.60;83.60
42683;DHT22;28293;50.930;3.464;2023-04-30T05:01:03;7.60;83.50
42683;DHT22;28293;50.930;3.464;2023-04-30T05:03:33;7.60;83.60
42683;DHT22;28293;50.930;3.464;2023-04-30T05:06:04;7.60;83.60
42683;DHT22;28293;50.930;3.464;2023-04-30T05:08:30;7.70;83.80
42683;DHT22;28293;50.930;3.464;2023-04-30T05:10:56;7.70;83.60
42683;DHT22;28293;50.930;3.464;2023-04-30T05:13:21;7.80;83.60
42683;DHT22;28293;50.930;3.464;2023-04-30T05:15:51;7.90;83.40
42683;DHT22;28293;50.930;3.464;2023-04-30T05:18:16;8.00;83.20
42683;DHT22;28293;50.930;3.464;2023-04-30T05:20:42;8.10;83.10
42683;DHT22;28293;50.930;3.464;2023-04-30T05:23:08;8.10;83.00
42683;DHT22;28293;50.930;3.464;2023-04-30T05:25:34;8.10;82.70
42683;DHT22;28293;50.930;3.464;2023-04-30T05:28:01;8.10;82.90
42683;DHT22;28293;50.930;3.464;2023-04-30T05:30:26;8.20;82.90
42683;DHT22;28293;50.930;3.464;2023-04-30T05:32:52;8.30;83.00
42683;DHT22;28293;50.930;3.464;2023-04-30T05:35:18;8.40;82.50
42683;DHT22;28293;50.930;3.464;2023-04-30T05:37:44;8.40;82.60
42683;DHT22;28293;50.930;3.464;2023-04-30T05:40:10;8.40;82.70
42683;DHT22;28293;50.930;3.464;2023-04-30T05:42:37;8.50;82.70
42683;DHT22;28293;50.930;3.464;2023-04-30T05:45:05;8.60;82.80
42683;DHT22;28293;50.930;3.464;2023-04-30T05:47:31;8.70;82.40
42683;DHT22;28293;50.930;3.464;2023-04-30T05:49:57;8.70;82.60
42683;DHT22;28293;50.930;3.464;2023-04-30T05:52:22;8.90;82.30
42683;DHT22;28293;50.930;3.464;2023-04-30T05:54:48;9.00;82.30
42683;DHT22;28293;50.930;3.464;2023-04-30T05:57:14;9.10;82.00
42683;DHT22;28293;50.930;3.464;2023-04-30T05:59:39;9.20;81.70
42683;DHT22;28293;50.930;3.464;2023-04-30T06:02:05;9.30;81.80
42683;DHT22;28293;50.930;3.464;2023-04-30T06:04:31;9.40;81.90
42683;DHT22;28293;50.930;3.464;2023-04-30T06:06:57;9.60;81.80
42683;DHT22;28293;50.930;3.464;2023-04-30T06:09:23;9.70;81.60
42683;DHT22;28293;50.930;3.464;2023-04-30T06:11:48;9.70;80.70
42683;DHT22;28293;50.930;3.464;2023-04-30T06:14:17;9.90;80.60
42683;DHT22;28293;50.930;3.464;2023-04-30T06:16:44;10.10;80.10
42683;DHT22;28293;50.930;3.464;2023-04-30T06:19:11;10.10;79.30
42683;DHT22;28293;50.930;3.464;2023-04-30T06:21:36;10.10;79.30
42683;DHT22;28293;50.930;3.464;2023-04-30T06:24:03;10.20;79.10
42683;DHT22;28293;50.930;3.464;2023-04-30T06:26:28;10.30;78.80
42683;DHT22;28293;50.930;3.464;2023-04-30T06:28:55;10.40;78.60
42683;DHT22;28293;50.930;3.464;2023-04-30T06:31:21;10.50;78.90
42683;DHT22;28293;50.930;3.464;2023-04-30T06:33:47;10.60;78.60
42683;DHT22;28293;50.930;3.464;2023-04-30T06:36:12;10.70;78.00
42683;DHT22;28293;50.930;3.464;2023-04-30T06:38:39;10.80;77.50
42683;DHT22;28293;50.930;3.464;2023-04-30T06:41:05;10.90;77.50
42683;DHT22;28293;50.930;3.464;2023-04-30T06:43:30;11.10;77.80
42683;DHT22;28293;50.930;3.464;2023-04-30T06:45:56;11.20;76.60
42683;DHT22;28293;50.930;3.464;2023-04-30T06:48:22;11.30;76.80
42683;DHT22;28293;50.930;3.464;2023-04-30T06:50:47;11.50;76.50
42683;DHT22;28293;50.930;3.464;2023-04-30T06:53:13;11.50;75.60
42683;DHT22;28293;50.930;3.464;2023-04-30T06:55:44;11.60;75.80
42683;DHT22;28293;50.930;3.464;2023-04-30T06:58:10;11.70;75.30
42683;DHT22;28293;50.930;3.464;2023-04-30T07:00:36;11.90;75.40
42683;DHT22;28293;50.930;3.464;2023-04-30T07:03:02;12.10;74.70
42683;DHT22;28293;50.930;3.464;2023-04-30T07:05:32;12.20;75.00
42683;DHT22;28293;50.930;3.464;2023-04-30T07:08:00;12.60;74.70
42683;DHT22;28293;50.930;3.464;2023-04-30T07:10:26;12.60;72.90
42683;DHT22;28293;50.930;3.464;2023-04-30T07:12:52;12.70;73.10
42683;DHT22;28293;50.930;3.464;2023-04-30T07:15:18;12.80;73.20
42683;DHT22;28293;50.930;3.464;2023-04-30T07:17:43;13.00;72.00
42683;DHT22;28293;50.930;3.464;2023-04-30T07:20:10;13.10;72.80
42683;DHT22;28293;50.930;3.464;2023-04-30T07:22:37;13.20;70.70
42683;DHT22;28293;50.930;3.464;2023-04-30T07:25:03;13.40;71.80
42683;DHT22;28293;50.930;3.464;2023-04-30T07:27:28;13.40;70.80
42683;DHT22;28293;50.930;3.464;2023-04-30T07:29:54;13.50;70.60
42683;DHT22;28293;50.930;3.464;2023-04-30T07:32:20;13.60;72.00
42683;DHT22;28293;50.930;3.464;2023-04-30T07:34:46;13.90;70.50
42683;DHT22;28293;50.930;3.464;2023-04-30T07:37:13;14.00;69.10
42683;DHT22;28293;50.930;3.464;2023-04-30T07:39:39;14.00;70.20
42683;DHT22;28293;50.930;3.464;2023-04-30T07:42:06;14.20;70.20
42683;DHT22;28293;50.930;3.464;2023-04-30T07:44:31;14.40;69.00
42683;DHT22;28293;50.930;3.464;2023-04-30T07:46:57;14.40;68.70
42683;DHT22;28293;50.930;3.464;2023-04-30T07:49:23;14.50;67.90
42683;DHT22;28293;50.930;3.464;2023-04-30T07:51:49;14.60;68.50
42683;DHT22;28293;50.930;3.464;2023-04-30T07:54:15;14.40;68.80
42683;DHT22;28293;50.930;3.464;2023-04-30T07:56:40;14.70;68.10
42683;DHT22;28293;50.930;3.464;2023-04-30T07:59:07;14.90;68.20
42683;DHT22;28293;50.930;3.464;2023-04-30T08:01:33;15.20;67.60
42683;DHT22;28293;50.930;3.464;2023-04-30T08:03:58;15.00;65.40
42683;DHT22;28293;50.930;3.464;2023-04-30T08:06:24;14.90;67.50
42683;DHT22;28293;50.930;3.464;2023-04-30T08:08:52;15.30;67.20
42683;DHT22;28293;50.930;3.464;2023-04-30T08:11:17;15.20;66.50
42683;DHT22;28293;50.930;3.464;2023-04-30T08:13:44;14.90;67.80
42683;DHT22;28293;50.930;3.464;2023-04-30T08:16:09;15.20;68.00
42683;DHT22;28293;50.930;3.464;2023-04-30T08:18:35;15.40;66.20
42683;DHT22;28293;50.930;3.464;2023-04-30T08:21:03;15.50;66.80
42683;DHT22;28293;50.930;3.464;2023-04-30T08:23:30;15.50;65.30
42683;DHT22;28293;50.930;3.464;2023-04-30T08:25:55;15.60;66.10
42683;DHT22;28293;50.930;3.464;2023-04-30T08:28:21;15.50;65.20
42683;DHT22;28293;50.930;3.464;2023-04-30T08:30:47;15.60;66.40
42683;DHT22;28293;50.930;3.464;2023-04-30T08:33:14;15.80;65.20
42683;DHT22;28293;50.930;3.464;2023-04-30T08:35:40;16.10;65.10
42683;DHT22;28293;50.930;3.464;2023-04-30T08:38:06;16.20;62.90
42683;DHT22;28293;50.930;3.464;2023-04-30T08:40:34;16.30;63.50
42683;DHT22;28293;50.930;3.464;2023-04-30T08:43:06;16.40;63.80
42683;DHT22;28293;50.930;3.464;2023-04-30T08:45:35;16.70;63.10
42683;DHT22;28293;50.930;3.464;2023-04-30T08:48:04;16.90;61.80
42683;DHT22;28293;50.930;3.464;2023-04-30T08:50:35;17.20;60.80
42683;DHT22;28293;50.930;3.464;2023-04-30T08:53:01;17.30;59.60
42683;DHT22;28293;50.930;3.464;2023-04-30T08:55:27;17.50;59.40
42683;DHT22;28293;50.930;3.464;2023-04-30T08:57:53;17.40;58.80
42683;DHT22;28293;50.930;3.464;2023-04-30T09:00:19;17.20;59.50
42683;DHT22;28293;50.930;3.464;2023-04-30T09:02:45;17.30;62.00
42683;DHT22;28293;50.930;3.464;2023-04-30T09:05:14;17.50;58.40
42683;DHT22;28293;50.930;3.464;2023-04-30T09:07:42;17.60;59.30
42683;DHT22;28293;50.930;3.464;2023-04-30T09:12:41;18.00;59.00
42683;DHT22;28293;50.930;3.464;2023-04-30T09:15:10;18.10;58.20
42683;DHT22;28293;50.930;3.464;2023-04-30T09:17:37;18.20;58.80
42683;DHT22;28293;50.930;3.464;2023-04-30T09:22:35;17.60;58.90
42683;DHT22;28293;50.930;3.464;2023-04-30T09:25:01;17.80;57.10
42683;DHT22;28293;50.930;3.464;2023-04-30T09:27:27;18.20;56.20
42683;DHT22;28293;50.930;3.464;2023-04-30T09:29:52;18.30;55.70
42683;DHT22;28293;50.930;3.464;2023-04-30T09:32:18;18.60;55.60
42683;DHT22;28293;50.930;3.464;2023-04-30T09:34:44;18.60;55.00
42683;DHT22;28293;50.930;3.464;2023-04-30T09:37:10;18.40;55.00
42683;DHT22;28293;50.930;3.464;2023-04-30T09:39:49;18.20;56.70
42683;DHT22;28293;50.930;3.464;2023-04-30T09:42:16;17.70;58.90
42683;DHT22;28293;50.930;3.464;2023-04-30T09:44:42;18.10;56.70
42683;DHT22;28293;50.930;3.464;2023-04-30T09:47:17;18.20;55.70
42683;DHT22;28293;50.930;3.464;2023-04-30T09:49:46;18.60;55.60
42683;DHT22;28293;50.930;3.464;2023-04-30T09:52:14;18.80;54.30
42683;DHT22;28293;50.930;3.464;2023-04-30T09:54:43;19.00;53.00
42683;DHT22;28293;50.930;3.464;2023-04-30T09:57:10;18.80;53.40
42683;DHT22;28293;50.930;3.464;2023-04-30T09:59:37;19.20;53.30
42683;DHT22;28293;50.930;3.464;2023-04-30T10:02:07;19.10;52.50
42683;DHT22;28293;50.930;3.464;2023-04-30T10:04:38;18.80;52.10
42683;DHT22;28293;50.930;3.464;2023-04-30T10:07:14;18.70;53.80
42683;DHT22;28293;50.930;3.464;2023-04-30T10:09:48;19.10;52.30
42683;DHT22;28293;50.930;3.464;2023-04-30T10:12:15;19.20;52.80
42683;DHT22;28293;50.930;3.464;2023-04-30T10:15:20;19.30;53.20
42683;DHT22;28293;50.930;3.464;2023-04-30T10:17:38;19.50;53.10
42683;DHT22;28293;50.930;3.464;2023-04-30T10:20:08;19.50;51.70
42683;DHT22;28293;50.930;3.464;2023-04-30T10:22:34;19.50;51.00
42683;DHT22;28293;50.930;3.464;2023-04-30T10:25:01;19.60;51.00
42683;DHT22;28293;50.930;3.464;2023-04-30T10:27:28;19.90;50.60
42683;DHT22;28293;50.930;3.464;2023-04-30T10:29:54;19.80;50.20
42683;DHT22;28293;50.930;3.464;2023-04-30T10:32:22;19.50;51.40
42683;DHT22;28293;50.930;3.464;2023-04-30T10:35:04;19.60;51.80
42683;DHT22;28293;50.930;3.464;2023-04-30T10:37:45;19.90;49.70
42683;DHT22;28293;50.930;3.464;2023-04-30T10:40:12;20.20;49.00
42683;DHT22;28293;50.930;3.464;2023-04-30T10:42:45;20.40;48.30
42683;DHT22;28293;50.930;3.464;2023-04-30T10:45:11;20.50;48.40
42683;DHT22;28293;50.930;3.464;2023-04-30T10:47:37;20.60;48.10
42683;DHT22;28293;50.930;3.464;2023-04-30T10:50:09;20.40;47.40
42683;DHT22;28293;50.930;3.464;2023-04-30T10:52:37;19.50;48.00
42683;DHT22;28293;50.930;3.464;2023-04-30T10:55:07;18.90;46.20
42683;DHT22;28293;50.930;3.464;2023-04-30T10:57:40;19.10;50.10
42683;DHT22;28293;50.930;3.464;2023-04-30T11:02:42;19.80;48.10
42683;DHT22;28293;50.930;3.464;2023-04-30T11:05:14;20.20;48.60
42683;DHT22;28293;50.930;3.464;2023-04-30T11:07:58;20.40;46.60
42683;DHT22;28293;50.930;3.464;2023-04-30T11:10:27;20.50;45.30
42683;DHT22;28293;50.930;3.464;2023-04-30T11:12:54;20.60;45.00
42683;DHT22;28293;50.930;3.464;2023-04-30T11:15:24;20.60;45.30
42683;DHT22;28293;50.930;3.464;2023-04-30T11:17:50;20.70;45.00
42683;DHT22;28293;50.930;3.464;2023-04-30T11:20:20;20.90;44.60
42683;DHT22;28293;50.930;3.464;2023-04-30T11:22:47;21.10;45.90
42683;DHT22;28293;50.930;3.464;2023-04-30T11:25:18;21.30;44.40
42683;DHT22;28293;50.930;3.464;2023-04-30T11:27:44;21.30;45.00
42683;DHT22;28293;50.930;3.464;2023-04-30T11:30:12;21.30;44.70
42683;DHT22;28293;50.930;3.464;2023-04-30T11:32:40;21.40;45.00
42683;DHT22;28293;50.930;3.464;2023-04-30T11:35:06;21.50;44.00
42683;DHT22;28293;50.930;3.464;2023-04-30T11:37:37;21.20;44.00
42683;DHT22;28293;50.930;3.464;2023-04-30T11:40:05;21.10;43.00
42683;DHT22;28293;50.930;3.464;2023-04-30T11:42:38;20.90;42.80
42683;DHT22;28293;50.930;3.464;2023-04-30T11:45:08;21.10;43.30
42683;DHT22;28293;50.930;3.464;2023-04-30T11:47:45;21.60;44.00
42683;DHT22;28293;50.930;3.464;2023-04-30T11:50:32;21.50;41.70
42683;DHT22;28293;50.930;3.464;2023-04-30T11:52:59;21.60;41.60
42683;DHT22;28293;50.930;3.464;2023-04-30T11:55:29;21.50;42.30
42683;DHT22;28293;50.930;3.464;2023-04-30T11:57:56;21.60;41.40
42683;DHT22;28293;50.930;3.464;2023-04-30T12:00:30;21.60;40.70
42683;DHT22;28293;50.930;3.464;2023-04-30T12:02:58;21.80;41.50
42683;DHT22;28293;50.930;3.464;2023-04-30T12:05:25;21.70;40.40
42683;DHT22;28293;50.930;3.464;2023-04-30T12:08:10;21.60;40.30
42683;DHT22;28293;50.930;3.464;2023-04-30T12:10:36;21.50;40.60
42683;DHT22;28293;50.930;3.464;2023-04-30T12:13:02;21.80;40.50
42683;DHT22;28293;50.930;3.464;2023-04-30T12:15:28;21.70;41.30
42683;DHT22;28293;50.930;3.464;2023-04-30T12:17:55;21.30;40.80
42683;DHT22;28293;50.930;3.464;2023-04-30T12:20:24;21.60;41.30
42683;DHT22;28293;50.930;3.464;2023-04-30T12:22:50;21.80;40.90
42683;DHT22;28293;50.930;3.464;2023-04-30T12:25:18;22.00;40.50
42683;DHT22;28293;50.930;3.464;2023-04-30T12:27:51;22.10;40.20
42683;DHT22;28293;50.930;3.464;2023-04-30T12:30:24;22.10;40.30
42683;DHT22;28293;50.930;3.464;2023-04-30T12:32:52;21.50;39.30
42683;DHT22;28293;50.930;3.464;2023-04-30T12:35:20;21.30;40.60
42683;DHT22;28293;50.930;3.464;2023-04-30T12:37:52;21.10;40.70
42683;DHT22;28293;50.930;3.464;2023-04-30T12:40:19;21.10;40.70
42683;DHT22;28293;50.930;3.464;2023-04-30T12:42:46;21.00;41.40
42683;DHT22;28293;50.930;3.464;2023-04-30T12:45:12;21.30;41.80
42683;DHT22;28293;50.930;3.464;2023-04-30T12:47:44;21.60;41.00
42683;DHT22;28293;50.930;3.464;2023-04-30T12:50:10;21.70;40.00
42683;DHT22;28293;50.930;3.464;2023-04-30T12:52:39;22.10;40.50
42683;DHT22;28293;50.930;3.464;2023-04-30T12:55:16;22.00;40.00
42683;DHT22;28293;50.930;3.464;2023-04-30T12:58:01;22.20;39.90
42683;DHT22;28293;50.930;3.464;2023-04-30T13:00:27;22.30;38.80
42683;DHT22;28293;50.930;3.464;2023-04-30T13:02:53;22.10;39.50
42683;DHT22;28293;50.930;3.464;2023-04-30T13:05:18;22.10;39.20
42683;DHT22;28293;50.930;3.464;2023-04-30T13:07:44;22.10;39.10
42683;DHT22;28293;50.930;3.464;2023-04-30T13:10:10;22.40;40.30
42683;DHT22;28293;50.930;3.464;2023-04-30T13:12:36;22.40;38.30
42683;DHT22;28293;50.930;3.464;2023-04-30T13:15:01;22.00;38.40
42683;DHT22;28293;50.930;3.464;2023-04-30T13:17:28;21.70;39.40
42683;DHT22;28293;50.930;3.464;2023-04-30T13:19:53;21.80;40.20
42683;DHT22;28293;50.930;3.464;2023-04-30T13:22:19;22.10;39.80
42683;DHT22;28293;50.930;3.464;2023-04-30T13:24:45;21.90;39.60
42683;DHT22;28293;50.930;3.464;2023-04-30T13:27:11;22.00;39.70
42683;DHT22;28293;50.930;3.464;2023-04-30T13:29:36;22.30;38.90
42683;DHT22;28293;50.930;3.464;2023-04-30T13:32:02;22.60;39.40
42683;DHT22;28293;50.930;3.464;2023-04-30T13:34:28;22.70;38.90
42683;DHT22;28293;50.930;3.464;2023-04-30T13:36:54;22.60;39.10
42683;DHT22;28293;50.930;3.464;2023-04-30T13:39:20;22.70;39.50
42683;DHT22;28293;50.930;3.464;2023-04-30T13:41:46;22.40;39.10
42683;DHT22;28293;50.930;3.464;2023-04-30T13:44:13;22.20;38.80
42683;DHT22;28293;50.930;3.464;2023-04-30T13:46:40;22.00;38.70
42683;DHT22;28293;50.930;3.464;2023-04-30T13:49:06;21.80;40.00
42683;DHT22;28293;50.930;3.464;2023-04-30T13:51:31;21.30;39.60
42683;DHT22;28293;50.930;3.464;2023-04-30T13:53:57;21.10;41.60
42683;DHT22;28293;50.930;3.464;2023-04-30T13:56:23;21.30;40.90
42683;DHT22;28293;50.930;3.464;2023-04-30T13:58:48;21.50;39.80
42683;DHT22;28293;50.930;3.464;2023-04-30T14:01:14;21.60;40.50
42683;DHT22;28293;50.930;3.464;2023-04-30T14:03:40;21.60;41.60
42683;DHT22;28293;50.930;3.464;2023-04-30T14:06:05;21.90;41.70
42683;DHT22;28293;50.930;3.464;2023-04-30T14:08:31;22.00;40.30
42683;DHT22;28293;50.930;3.464;2023-04-30T14:10:58;22.20;39.70
42683;DHT22;28293;50.930;3.464;2023-04-30T14:13:23;22.30;39.30
42683;DHT22;28293;50.930;3.464;2023-04-30T14:15:49;22.10;39.50
42683;DHT22;28293;50.930;3.464;2023-04-30T14:18:14;22.50;38.60
42683;DHT22;28293;50.930;3.464;2023-04-30T14:20:40;22.40;37.70
42683;DHT22;28293;50.930;3.464;2023-04-30T14:23:06;22.40;37.10
42683;DHT22;28293;50.930;3.464;2023-04-30T14:25:33;22.60;37.70
42683;DHT22;28293;50.930;3.464;2023-04-30T14:27:58;22.60;38.30
42683;DHT22;28293;50.930;3.464;2023-04-30T14:30:24;22.50;37.60
42683;DHT22;28293;50.930;3.464;2023-04-30T14:32:50;22.30;37.60
42683;DHT22;28293;50.930;3.464;2023-04-30T14:35:15;22.10;38.80
42683;DHT22;28293;50.930;3.464;2023-04-30T14:37:41;21.60;40.20
42683;DHT22;28293;50.930;3.464;2023-04-30T14:40:07;21.50;40.10
42683;DHT22;28293;50.930;3.464;2023-04-30T14:42:34;21.10;41.10
42683;DHT22;28293;50.930;3.464;2023-04-30T14:44:59;20.80;41.40
42683;DHT22;28293;50.930;3.464;2023-04-30T14:47:25;21.10;42.00
42683;DHT22;28293;50.930;3.464;2023-04-30T14:49:51;21.40;42.30
42683;DHT22;28293;50.930;3.464;2023-04-30T14:52:18;21.70;41.50
42683;DHT22;28293;50.930;3.464;2023-04-30T14:54:44;21.80;40.50
42683;DHT22;28293;50.930;3.464;2023-04-30T14:57:10;22.00;39.70
42683;DHT22;28293;50.930;3.464;2023-04-30T14:59:35;22.10;39.80
42683;DHT22;28293;50.930;3.464;2023-04-30T15:02:04;22.40;40.20
42683;DHT22;28293;50.930;3.464;2023-04-30T15:04:30;21.80;39.30
42683;DHT22;28293;50.930;3.464;2023-04-30T15:06:56;21.70;40.10
42683;DHT22;28293;50.930;3.464;2023-04-30T15:09:22;21.90;39.30
42683;DHT22;28293;50.930;3.464;2023-04-30T15:11:47;21.70;39.90
42683;DHT22;28293;50.930;3.464;2023-04-30T15:14:13;21.60;39.90
42683;DHT22;28293;50.930;3.464;2023-04-30T15:16:41;21.20;40.70
42683;DHT22;28293;50.930;3.464;2023-04-30T15:19:07;21.60;41.00
42683;DHT22;28293;50.930;3.464;2023-04-30T15:21:32;21.80;40.00
42683;DHT22;28293;50.930;3.464;2023-04-30T15:23:58;21.90;39.30
42683;DHT22;28293;50.930;3.464;2023-04-30T15:26:24;21.80;40.10
42683;DHT22;28293;50.930;3.464;2023-04-30T15:28:50;21.80;39.90
42683;DHT22;28293;50.930;3.464;2023-04-30T15:31:15;21.70;39.60
42683;DHT22;28293;50.930;3.464;2023-04-30T15:33:41;21.50;39.20
42683;DHT22;28293;50.930;3.464;2023-04-30T15:36:09;21.50;39.30
42683;DHT22;28293;50.930;3.464;2023-04-30T15:38:35;21.40;38.80
42683;DHT22;28293;50.930;3.464;2023-04-30T15:41:00;21.60;38.50
42683;DHT22;28293;50.930;3.464;2023-04-30T15:43:26;21.40;39.00
42683;DHT22;28293;50.930;3.464;2023-04-30T15:45:54;20.80;40.80
42683;DHT22;28293;50.930;3.464;2023-04-30T15:48:20;21.00;40.80
42683;DHT22;28293;50.930;3.464;2023-04-30T15:50:46;20.70;40.40
42683;DHT22;28293;50.930;3.464;2023-04-30T15:53:12;20.90;41.00
42683;DHT22;28293;50.930;3.464;2023-04-30T15:55:38;21.10;41.80
42683;DHT22;28293;50.930;3.464;2023-04-30T15:58:05;21.50;40.80